Terminal Aerodrome Forecast
Issued by NWS Central Illinois

Home | Current Version | Previous Version | Text Only | Print | Product List | Glossary On
Versions: 1 2 3 4 5 6 7 8 9 10 11 12 13
000
FTUS43 KILX 281120
TAFPIA
TAF
KPIA 281120Z 2812/2912 16006KT P6SM BKN120
     FM281800 17012KT P6SM SCT035 BKN120
     FM290100 16008KT P6SM SCT040 BKN120
     FM290700 16005KT P6SM VCSH BKN040=

USA.gov is the U.S. government's official web portal to all federal, state and local government web resources and services.